Maunalei — KFMV — position and weather

sailwx.info

Track history (hours):
 
Tides and Currents Weather Stations Pressure Air Temp Water Temp Dewpoint Dewpoint Depression Visibility Wind Speed Wind Dir Waves Ship Positions

Maunalei

Owner: MATSON NAVIGATION COMPANY, INC, Oakland, CA. More information available from US FCC via Universal Licensing System and Coast Guard Vessel Documentation Center.

Last reported at 2017-Dec-07 00:00 UTC. Time now 2017-Dec-13 19:02 UTC.
Position N 21°18' W 169°48'.

Type: Ship. MMSI: 303584000.

Wind from 070 at 13 knots

Barometer 1020.5 mb
Air temperature 23.3 ° C
Visibility: greater than 10.8 NM
Dewpoint 16.1 ° C
Water temperature 25.0 ° C

Date/timePositionNaut miles runAvg speedWind from/ knotsBaromVisibWave heightAir tempDewpointWater temp
2017-Dec-07 00:00N 21°18' W 169°48'49220.5 070 / 131020.510.8 23.316.125.0
2017-Dec-06 00:00N 21°18' W 161°00'   050 / 241019.010.8 23.014.625.0
2017-Dec-03 00:00N 25°00' W 149°00'41523.0 040 / 241018.210.8 21.113.521.0
2017-Dec-02 06:00N 27°42' W 141°54'12821.4 180 / 71018.010.8 17.011.521.0
2017-Dec-02 00:00N 28°36' W 139°42'13622.7 140 / 61020.310.8 18.314.521.1
2017-Dec-01 18:00N 29°12' W 137°12'36920.5 140 / 71015.010.8 17.013.521.0
2017-Dec-01 00:00N 31°00' W 130°24'41120.6 020 / 171025.010.8 16.712.619.0
2017-Nov-30 04:02N 32°38' W 122°35'317.7
2017-Nov-30 03:50N 32°39' W 122°31'1517.8
2017-Nov-30 02:58N 32°42' W 122°13'917.7
2017-Nov-30 02:28N 32°43' W 122°02'3017.8
2017-Nov-30 00:47N 32°49' W 121°27'1118.3
2017-Nov-30 00:09N 32°51' W 121°14'34204.3
2017-Nov-30 00:00N 32°48' W 121°54'7237.8 010 / 81016.810.8 16.712.616.0
2017-Nov-29 22:06N 32°59' W 120°30'218.1
2017-Nov-29 21:58N 32°59' W 120°27'818.0
2017-Nov-29 21:30N 33°01' W 120°17'1118.1
2017-Nov-29 20:54N 33°03' W 120°04'2217.8
2017-Nov-29 19:39N 33°07' W 119°38'417.8
2017-Nov-29 19:27N 33°08' W 119°34'917.5
2017-Nov-29 18:56N 33°10' W 119°23'818.5
2017-Nov-29 18:30N 33°13' W 119°15'918.6
2017-Nov-29 18:00N 33°17' W 119°05'1018.4
2017-Nov-29 17:26N 33°22' W 118°54'818.5
2017-Nov-29 17:00N 33°26' W 118°46'917.1
2017-Nov-29 16:30N 33°30' W 118°37'611.4
2017-Nov-29 16:00N 33°31' W 118°30'611.4
2017-Nov-29 15:30N 33°32' W 118°23'710.7
2017-Nov-29 14:53N 33°35' W 118°16'910.9
2017-Nov-29 14:02N 33°43' W 118°11'0 6.6
2017-Nov-29 13:59N 33°43' W 118°11'3 0.3
2017-Nov-29 01:46N 33°46' W 118°13'0 0.0
2017-Nov-29 01:22N 33°46' W 118°13'0 0.0
2017-Nov-29 00:57N 33°46' W 118°13'0 0.0
2017-Nov-29 00:27N 33°46' W 118°13'0 0.0
2017-Nov-28 23:51N 33°46' W 118°13'0 0.0
2017-Nov-28 23:15N 33°46' W 118°13'0 0.0
2017-Nov-28 22:56N 33°46' W 118°13'0 0.0
2017-Nov-28 19:37N 33°46' W 118°13'0 0.0
2017-Nov-28 19:19N 33°46' W 118°13'0 0.0
2017-Nov-28 18:55N 33°46' W 118°13'0 0.0
2017-Nov-28 18:18N 33°46' W 118°13'0 0.0
2017-Nov-28 18:00N 33°46' W 118°13'0 0.0
2017-Nov-28 17:30N 33°46' W 118°13'0 0.0
2017-Nov-28 17:00N 33°46' W 118°13'0 0.0
2017-Nov-28 16:24N 33°46' W 118°13'0 0.0
2017-Nov-28 15:59N 33°46' W 118°13'0 0.0
2017-Nov-27 13:43N 33°46' W 118°13'1 3.6
2017-Nov-27 13:27N 33°45' W 118°13'3 4.0
2017-Nov-27 12:47N 33°43' W 118°11'3 9.8
2017-Nov-27 12:26N 33°40' W 118°12'510.0
2017-Nov-27 11:57N 33°36' W 118°16'511.0
2017-Nov-27 11:30N 33°36' W 118°22'4 8.9
2017-Nov-27 11:00N 33°37' W 118°27'611.4
2017-Nov-27 10:30N 33°37' W 118°34'611.8
2017-Nov-27 10:00N 33°37' W 118°41'611.7
2017-Nov-27 09:30N 33°38' W 118°48'611.9
2017-Nov-27 09:01N 33°39' W 118°55'611.5
2017-Nov-27 08:30N 33°39' W 119°02'714.5
2017-Nov-27 08:00N 33°40' W 119°11'919.3
2017-Nov-27 07:31N 33°41' W 119°22'1019.1
2017-Nov-27 07:01N 33°42' W 119°33'611.7
2017-Nov-27 06:31N 33°37' W 119°37'510.1
2017-Nov-27 06:00N 33°42' W 119°36'1019.3
2017-Nov-27 05:30N 33°43' W 119°48'1019.2
2017-Nov-27 05:00N 33°44' W 119°59'1019.3
2017-Nov-27 04:28N 33°45' W 120°12'919.2
2017-Nov-27 04:01N 33°47' W 120°22'1019.1
2017-Nov-27 03:29N 33°49' W 120°34'919.1
2017-Nov-27 03:01N 33°51' W 120°45'1019.5
2017-Nov-27 02:31N 33°53' W 120°56'1019.2
2017-Nov-27 02:01N 33°55' W 121°07'1019.0
2017-Nov-27 01:30N 33°56' W 121°19'1019.5
2017-Nov-27 01:01N 33°59' W 121°30'1019.7
2017-Nov-27 00:30N 34°01' W 121°42'1019.8
2017-Nov-27 00:00N 34°03' W 121°53'  
Track history (hours):
 
Tides and Currents Weather Stations Pressure Air Temp Water Temp Dewpoint Dewpoint Depression Visibility Wind Speed Wind Dir Waves Ship Positions

Maunalei

Owner: MATSON NAVIGATION COMPANY, INC, Oakland, CA. More information available from US FCC via Universal Licensing System and Coast Guard Vessel Documentation Center.

Last reported at 2017-Dec-07 00:00 UTC. Time now 2017-Dec-13 19:02 UTC.
Position N 21°18' W 169°48'.

Type: Ship. MMSI: 303584000.

Wind from 070 at 13 knots

Barometer 1020.5 mb
Air temperature 23.3 ° C
Visibility: greater than 10.8 NM
Dewpoint 16.1 ° C
Water temperature 25.0 ° C

Date/timePositionNaut miles runAvg speedWind from/ knotsBaromVisibWave heightAir tempDewpointWater temp
2017-Dec-07 00:00N 21°18' W 169°48'49220.5 070 / 131020.510.8 23.316.125.0
2017-Dec-06 00:00N 21°18' W 161°00'   050 / 241019.010.8 23.014.625.0
2017-Dec-03 00:00N 25°00' W 149°00'41523.0 040 / 241018.210.8 21.113.521.0
2017-Dec-02 06:00N 27°42' W 141°54'12821.4 180 / 71018.010.8 17.011.521.0
2017-Dec-02 00:00N 28°36' W 139°42'13622.7 140 / 61020.310.8 18.314.521.1
2017-Dec-01 18:00N 29°12' W 137°12'36920.5 140 / 71015.010.8 17.013.521.0
2017-Dec-01 00:00N 31°00' W 130°24'41120.6 020 / 171025.010.8 16.712.619.0
2017-Nov-30 04:02N 32°38' W 122°35'317.7
2017-Nov-30 03:50N 32°39' W 122°31'1517.8
2017-Nov-30 02:58N 32°42' W 122°13'917.7
2017-Nov-30 02:28N 32°43' W 122°02'3017.8
2017-Nov-30 00:47N 32°49' W 121°27'1118.3
2017-Nov-30 00:09N 32°51' W 121°14'34204.3
2017-Nov-30 00:00N 32°48' W 121°54'7237.8 010 / 81016.810.8 16.712.616.0
2017-Nov-29 22:06N 32°59' W 120°30'218.1
2017-Nov-29 21:58N 32°59' W 120°27'818.0
2017-Nov-29 21:30N 33°01' W 120°17'1118.1
2017-Nov-29 20:54N 33°03' W 120°04'2217.8
2017-Nov-29 19:39N 33°07' W 119°38'417.8
2017-Nov-29 19:27N 33°08' W 119°34'917.5
2017-Nov-29 18:56N 33°10' W 119°23'818.5
2017-Nov-29 18:30N 33°13' W 119°15'918.6
2017-Nov-29 18:00N 33°17' W 119°05'1018.4
2017-Nov-29 17:26N 33°22' W 118°54'818.5
2017-Nov-29 17:00N 33°26' W 118°46'917.1
2017-Nov-29 16:30N 33°30' W 118°37'611.4
2017-Nov-29 16:00N 33°31' W 118°30'611.4
2017-Nov-29 15:30N 33°32' W 118°23'710.7
2017-Nov-29 14:53N 33°35' W 118°16'910.9
2017-Nov-29 14:02N 33°43' W 118°11'0 6.6
2017-Nov-29 13:59N 33°43' W 118°11'3 0.3
2017-Nov-29 01:46N 33°46' W 118°13'0 0.0
2017-Nov-29 01:22N 33°46' W 118°13'0 0.0
2017-Nov-29 00:57N 33°46' W 118°13'0 0.0
2017-Nov-29 00:27N 33°46' W 118°13'0 0.0
2017-Nov-28 23:51N 33°46' W 118°13'0 0.0
2017-Nov-28 23:15N 33°46' W 118°13'0 0.0
2017-Nov-28 22:56N 33°46' W 118°13'0 0.0
2017-Nov-28 19:37N 33°46' W 118°13'0 0.0
2017-Nov-28 19:19N 33°46' W 118°13'0 0.0
2017-Nov-28 18:55N 33°46' W 118°13'0 0.0
2017-Nov-28 18:18N 33°46' W 118°13'0 0.0
2017-Nov-28 18:00N 33°46' W 118°13'0 0.0
2017-Nov-28 17:30N 33°46' W 118°13'0 0.0
2017-Nov-28 17:00N 33°46' W 118°13'0 0.0
2017-Nov-28 16:24N 33°46' W 118°13'0 0.0
2017-Nov-28 15:59N 33°46' W 118°13'0 0.0
2017-Nov-27 13:43N 33°46' W 118°13'1 3.6
2017-Nov-27 13:27N 33°45' W 118°13'3 4.0
2017-Nov-27 12:47N 33°43' W 118°11'3 9.8
2017-Nov-27 12:26N 33°40' W 118°12'510.0
2017-Nov-27 11:57N 33°36' W 118°16'511.0
2017-Nov-27 11:30N 33°36' W 118°22'4 8.9
2017-Nov-27 11:00N 33°37' W 118°27'611.4
2017-Nov-27 10:30N 33°37' W 118°34'611.8
2017-Nov-27 10:00N 33°37' W 118°41'611.7
2017-Nov-27 09:30N 33°38' W 118°48'611.9
2017-Nov-27 09:01N 33°39' W 118°55'611.5
2017-Nov-27 08:30N 33°39' W 119°02'714.5
2017-Nov-27 08:00N 33°40' W 119°11'919.3
2017-Nov-27 07:31N 33°41' W 119°22'1019.1
2017-Nov-27 07:01N 33°42' W 119°33'611.7
2017-Nov-27 06:31N 33°37' W 119°37'510.1
2017-Nov-27 06:00N 33°42' W 119°36'1019.3
2017-Nov-27 05:30N 33°43' W 119°48'1019.2
2017-Nov-27 05:00N 33°44' W 119°59'1019.3
2017-Nov-27 04:28N 33°45' W 120°12'919.2
2017-Nov-27 04:01N 33°47' W 120°22'1019.1
2017-Nov-27 03:29N 33°49' W 120°34'919.1
2017-Nov-27 03:01N 33°51' W 120°45'1019.5
2017-Nov-27 02:31N 33°53' W 120°56'1019.2
2017-Nov-27 02:01N 33°55' W 121°07'1019.0
2017-Nov-27 01:30N 33°56' W 121°19'1019.5
2017-Nov-27 01:01N 33°59' W 121°30'1019.7
2017-Nov-27 00:30N 34°01' W 121°42'1019.8
2017-Nov-27 00:00N 34°03' W 121°53'  

Dump ship's entire track history